sensor_id;sensor_type;location;lat;lon;timestamp;P1;P2;P0
66149;PMS5003;52952;50.904;20.648;2024-03-02T00:10:02;47;38;26
66149;PMS5003;52952;50.904;20.648;2024-03-02T00:20:10;47;38;26
66149;PMS5003;52952;50.904;20.648;2024-03-02T00:40:15;52;41;27
66149;PMS5003;52952;50.904;20.648;2024-03-02T00:50:18;52;41;27
66149;PMS5003;52952;50.904;20.648;2024-03-02T01:00:02;52;41;27
66149;PMS5003;52952;50.904;20.648;2024-03-02T01:10:06;48;40;25
66149;PMS5003;52952;50.904;20.648;2024-03-02T01:20:15;48;40;25
66149;PMS5003;52952;50.904;20.648;2024-03-02T01:30:13;48;40;25
66149;PMS5003;52952;50.904;20.648;2024-03-02T01:40:09;49;41;25
66149;PMS5003;52952;50.904;20.648;2024-03-02T01:50:09;49;41;25
66149;PMS5003;52952;50.904;20.648;2024-03-02T02:00:13;49;41;25
66149;PMS5003;52952;50.904;20.648;2024-03-02T02:10:13;50;41;25
66149;PMS5003;52952;50.904;20.648;2024-03-02T02:20:16;50;41;25
66149;PMS5003;52952;50.904;20.648;2024-03-02T02:30:17;50;41;25
66149;PMS5003;52952;50.904;20.648;2024-03-02T02:40:07;50;42;26
66149;PMS5003;52952;50.904;20.648;2024-03-02T02:50:11;50;42;26
66149;PMS5003;52952;50.904;20.648;2024-03-02T03:00:02;50;42;26
66149;PMS5003;52952;50.904;20.648;2024-03-02T03:10:13;51;40;25
66149;PMS5003;52952;50.904;20.648;2024-03-02T03:20:17;51;40;25
66149;PMS5003;52952;50.904;20.648;2024-03-02T03:30:15;51;40;25
66149;PMS5003;52952;50.904;20.648;2024-03-02T03:40:02;51;41;25
66149;PMS5003;52952;50.904;20.648;2024-03-02T03:50:14;51;41;25
66149;PMS5003;52952;50.904;20.648;2024-03-02T04:00:19;51;41;25
66149;PMS5003;52952;50.904;20.648;2024-03-02T04:10:11;45;39;24
66149;PMS5003;52952;50.904;20.648;2024-03-02T04:20:17;45;39;24
66149;PMS5003;52952;50.904;20.648;2024-03-02T04:30:15;45;39;24
66149;PMS5003;52952;50.904;20.648;2024-03-02T04:40:02;46;39;24
66149;PMS5003;52952;50.904;20.648;2024-03-02T04:50:04;46;39;24
66149;PMS5003;52952;50.904;20.648;2024-03-02T05:00:10;46;39;24
66149;PMS5003;52952;50.904;20.648;2024-03-02T05:10:02;44;37;23
66149;PMS5003;52952;50.904;20.648;2024-03-02T05:20:14;44;37;23
66149;PMS5003;52952;50.904;20.648;2024-03-02T05:30:11;44;37;23
66149;PMS5003;52952;50.904;20.648;2024-03-02T05:40:06;45;38;25
66149;PMS5003;52952;50.904;20.648;2024-03-02T05:50:11;45;38;25
66149;PMS5003;52952;50.904;20.648;2024-03-02T06:00:20;45;38;25
66149;PMS5003;52952;50.904;20.648;2024-03-02T06:10:09;52;41;25
66149;PMS5003;52952;50.904;20.648;2024-03-02T06:20:15;52;41;25
66149;PMS5003;52952;50.904;20.648;2024-03-02T06:40:09;52;41;25
66149;PMS5003;52952;50.904;20.648;2024-03-02T06:50:13;52;41;25
66149;PMS5003;52952;50.904;20.648;2024-03-02T07:00:18;52;41;25
66149;PMS5003;52952;50.904;20.648;2024-03-02T07:10:13;48;40;23
66149;PMS5003;52952;50.904;20.648;2024-03-02T07:20:02;48;40;23
66149;PMS5003;52952;50.904;20.648;2024-03-02T07:30:02;48;40;23
66149;PMS5003;52952;50.904;20.648;2024-03-02T07:40:12;51;41;24
66149;PMS5003;52952;50.904;20.648;2024-03-02T07:50:14;51;41;24
66149;PMS5003;52952;50.904;20.648;2024-03-02T08:00:19;51;41;24
66149;PMS5003;52952;50.904;20.648;2024-03-02T08:10:09;52;44;26
66149;PMS5003;52952;50.904;20.648;2024-03-02T08:20:13;52;44;26
66149;PMS5003;52952;50.904;20.648;2024-03-02T08:30:13;52;44;26
66149;PMS5003;52952;50.904;20.648;2024-03-02T08:40:02;46;38;25
66149;PMS5003;52952;50.904;20.648;2024-03-02T08:50:04;46;38;25
66149;PMS5003;52952;50.904;20.648;2024-03-02T09:00:18;46;38;25
66149;PMS5003;52952;50.904;20.648;2024-03-02T09:10:13;55;45;27
66149;PMS5003;52952;50.904;20.648;2024-03-02T09:20:04;55;45;27
66149;PMS5003;52952;50.904;20.648;2024-03-02T09:30:17;55;45;27
66149;PMS5003;52952;50.904;20.648;2024-03-02T09:40:07;52;43;27
66149;PMS5003;52952;50.904;20.648;2024-03-02T09:50:11;52;43;27
66149;PMS5003;52952;50.904;20.648;2024-03-02T10:00:02;52;43;27
66149;PMS5003;52952;50.904;20.648;2024-03-02T10:10:12;54;44;28
66149;PMS5003;52952;50.904;20.648;2024-03-02T10:20:36;54;44;28
66149;PMS5003;52952;50.904;20.648;2024-03-02T10:30:03;54;44;28
66149;PMS5003;52952;50.904;20.648;2024-03-02T10:40:13;55;44;27
66149;PMS5003;52952;50.904;20.648;2024-03-02T10:50:16;55;44;27
66149;PMS5003;52952;50.904;20.648;2024-03-02T11:00:34;55;44;27
66149;PMS5003;52952;50.904;20.648;2024-03-02T11:10:02;59;47;28
66149;PMS5003;52952;50.904;20.648;2024-03-02T11:20:19;59;47;28
66149;PMS5003;52952;50.904;20.648;2024-03-02T11:30:14;59;47;28
66149;PMS5003;52952;50.904;20.648;2024-03-02T11:40:02;56;45;28
66149;PMS5003;52952;50.904;20.648;2024-03-02T11:50:11;56;45;28
66149;PMS5003;52952;50.904;20.648;2024-03-02T12:00:05;56;45;28
66149;PMS5003;52952;50.904;20.648;2024-03-02T12:10:10;52;44;27
66149;PMS5003;52952;50.904;20.648;2024-03-02T12:20:12;52;44;27
66149;PMS5003;52952;50.904;20.648;2024-03-02T12:30:14;52;44;27
66149;PMS5003;52952;50.904;20.648;2024-03-02T12:40:22;60;48;29
66149;PMS5003;52952;50.904;20.648;2024-03-02T12:50:12;60;48;29
66149;PMS5003;52952;50.904;20.648;2024-03-02T13:00:09;60;48;29
66149;PMS5003;52952;50.904;20.648;2024-03-02T13:10:10;58;48;28
66149;PMS5003;52952;50.904;20.648;2024-03-02T13:20:02;58;48;28
66149;PMS5003;52952;50.904;20.648;2024-03-02T13:30:09;58;48;28
66149;PMS5003;52952;50.904;20.648;2024-03-02T13:50:14;60;48;30
66149;PMS5003;52952;50.904;20.648;2024-03-02T14:00:18;60;48;30
66149;PMS5003;52952;50.904;20.648;2024-03-02T14:10:10;63;50;31
66149;PMS5003;52952;50.904;20.648;2024-03-02T14:20:13;63;50;31
66149;PMS5003;52952;50.904;20.648;2024-03-02T14:30:02;63;50;31
66149;PMS5003;52952;50.904;20.648;2024-03-02T14:40:10;62;50;29
66149;PMS5003;52952;50.904;20.648;2024-03-02T14:50:06;62;50;29
66149;PMS5003;52952;50.904;20.648;2024-03-02T15:00:20;62;50;29
66149;PMS5003;52952;50.904;20.648;2024-03-02T15:10:02;72;58;35
66149;PMS5003;52952;50.904;20.648;2024-03-02T15:20:14;72;58;35
66149;PMS5003;52952;50.904;20.648;2024-03-02T15:30:06;72;58;35
66149;PMS5003;52952;50.904;20.648;2024-03-02T15:40:11;74;63;35
66149;PMS5003;52952;50.904;20.648;2024-03-02T15:50:15;74;63;35
66149;PMS5003;52952;50.904;20.648;2024-03-02T16:00:05;74;63;35
66149;PMS5003;52952;50.904;20.648;2024-03-02T16:10:14;76;67;35
66149;PMS5003;52952;50.904;20.648;2024-03-02T16:20:15;76;67;35
66149;PMS5003;52952;50.904;20.648;2024-03-02T16:30:01;76;67;35
66149;PMS5003;52952;50.904;20.648;2024-03-02T16:40:16;75;62;36
66149;PMS5003;52952;50.904;20.648;2024-03-02T16:50:04;75;62;36
66149;PMS5003;52952;50.904;20.648;2024-03-02T17:00:02;75;62;36
66149;PMS5003;52952;50.904;20.648;2024-03-02T17:10:14;78;70;39
66149;PMS5003;52952;50.904;20.648;2024-03-02T17:20:02;78;70;39
66149;PMS5003;52952;50.904;20.648;2024-03-02T17:30:14;78;70;39
66149;PMS5003;52952;50.904;20.648;2024-03-02T17:50:02;78;63;38
66149;PMS5003;52952;50.904;20.648;2024-03-02T18:00:14;78;63;38
66149;PMS5003;52952;50.904;20.648;2024-03-02T18:20:15;72;58;35
66149;PMS5003;52952;50.904;20.648;2024-03-02T18:30:10;72;58;35
66149;PMS5003;52952;50.904;20.648;2024-03-02T18:50:15;72;57;33
66149;PMS5003;52952;50.904;20.648;2024-03-02T19:00:05;72;57;33
66149;PMS5003;52952;50.904;20.648;2024-03-02T19:10:05;72;57;33
66149;PMS5003;52952;50.904;20.648;2024-03-02T19:20:18;66;52;33
66149;PMS5003;52952;50.904;20.648;2024-03-02T19:30:16;66;52;33
66149;PMS5003;52952;50.904;20.648;2024-03-02T19:40:05;66;52;33
66149;PMS5003;52952;50.904;20.648;2024-03-02T19:50:19;64;51;32
66149;PMS5003;52952;50.904;20.648;2024-03-02T20:00:02;64;51;32
66149;PMS5003;52952;50.904;20.648;2024-03-02T20:10:17;64;51;32
66149;PMS5003;52952;50.904;20.648;2024-03-02T20:20:16;63;50;32
66149;PMS5003;52952;50.904;20.648;2024-03-02T20:30:14;63;50;32
66149;PMS5003;52952;50.904;20.648;2024-03-02T20:40:09;63;50;32
66149;PMS5003;52952;50.904;20.648;2024-03-02T20:50:04;64;52;33
66149;PMS5003;52952;50.904;20.648;2024-03-02T21:00:18;64;52;33
66149;PMS5003;52952;50.904;20.648;2024-03-02T21:10:09;64;52;33
66149;PMS5003;52952;50.904;20.648;2024-03-02T21:20:11;64;50;32
66149;PMS5003;52952;50.904;20.648;2024-03-02T21:30:12;64;50;32
66149;PMS5003;52952;50.904;20.648;2024-03-02T21:40:08;64;50;32
66149;PMS5003;52952;50.904;20.648;2024-03-02T21:50:15;66;52;34
66149;PMS5003;52952;50.904;20.648;2024-03-02T22:00:04;66;52;34
66149;PMS5003;52952;50.904;20.648;2024-03-02T22:10:12;66;52;34
66149;PMS5003;52952;50.904;20.648;2024-03-02T22:20:02;72;59;35
66149;PMS5003;52952;50.904;20.648;2024-03-02T22:30:04;72;59;35
66149;PMS5003;52952;50.904;20.648;2024-03-02T22:40:04;72;59;35
66149;PMS5003;52952;50.904;20.648;2024-03-02T22:50:09;70;58;35
66149;PMS5003;52952;50.904;20.648;2024-03-02T23:00:31;70;58;35
66149;PMS5003;52952;50.904;20.648;2024-03-02T23:10:06;71;58;36
66149;PMS5003;52952;50.904;20.648;2024-03-02T23:20:13;71;58;36
66149;PMS5003;52952;50.904;20.648;2024-03-02T23:30:02;71;58;36
66149;PMS5003;52952;50.904;20.648;2024-03-02T23:50:02;69;57;35
